This is the latest recevied weather packets stored in our database for station/object N5TDX. If no packets are shown the sender has not sent any weather packets the latest 10 day(s).
| Time | Temp. | Humidity | Pressure | Rain* | Wind** | Luminosity | Snow |
|---|---|---|---|---|---|---|---|
| 1777927157 | 28.89° C | 49% | 1005.2 hPa | 0 mm | - | - | - |
| 1777926854 | 29.44° C | 48% | 1005.2 hPa | 0 mm | - | - | - |
| 1777926549 | 28.89° C | 48% | 1005.2 hPa | 0 mm | - | - | - |
| 1777926246 | 28.89° C | 48% | 1005.5 hPa | 0 mm | - | - | - |
| 1777925943 | 28.89° C | 49% | 1005.7 hPa | 0 mm | - | - | - |
| 1777925640 | 29.44° C | 47% | 1005.7 hPa | 0 mm | - | - | - |
| 1777925337 | 29.44° C | 47% | 1005.6 hPa | 0 mm | - | - | - |
| 1777925034 | 28.89° C | 49% | 1005.9 hPa | 0 mm | - | - | - |
| 1777924731 | 28.89° C | 49% | 1006.2 hPa | 0 mm | - | - | - |
| 1777924426 | 28.89° C | 48% | 1005.9 hPa | 0 mm | - | - | - |
| 1777924123 | 28.89° C | 48% | 1006.4 hPa | 0 mm | - | - | - |
| 1777923819 | 28.89° C | 48% | 1006.4 hPa | 0 mm | - | - | - |
| 1777923515 | 28.89° C | 49% | 1006.3 hPa | 0 mm | - | - | - |
| 1777923213 | 28.89° C | 48% | 1006.7 hPa | 0 mm | - | - | - |
| 1777922911 | 28.33° C | 51% | 1006.5 hPa | 0 mm | - | - | - |
| 1777922609 | 27.78° C | 51% | 1006.5 hPa | 0 mm | - | - | - |
| 1777922307 | 27.78° C | 51% | 1006.7 hPa | 0 mm | - | - | - |
| 1777922004 | 28.33° C | 48% | 1006.9 hPa | 0 mm | - | - | - |
| 1777921700 | 27.78° C | 52% | 1006.8 hPa | 0 mm | - | - | - |
| 1777921396 | 28.33° C | 49% | 1007 hPa | 0 mm | - | - | - |
| 1777921093 | 28.33° C | 48% | 1006.8 hPa | 0 mm | - | - | - |
| 1777920790 | 27.78° C | 49% | 1007.3 hPa | 0 mm | - | - | - |
| 1777920486 | 27.78° C | 49% | 1007.2 hPa | 0 mm | - | - | - |
| 1777920182 | 27.78° C | 49% | 1007.4 hPa | 0 mm | - | - | - |
| 1777919877 | 28.33° C | 49% | 1007.2 hPa | 0 mm | - | - | - |
* Rain latest hour (hover to see other rain measurements)
** Current wind speed in m/s (hover to see current wind gust speed)